Time;durP1;ratioP1;P1;durP2;ratioP2;P2;SDS_P1;SDS_P2;PMS_P1;PMS_P2;Temp;Humidity;BMP_temperature;BMP_pressure;BME280_temperature;BME280_humidity;BME280_pressure;Samples;Min_cycle;Max_cycle;Signal;HPM_P1;HPM_P2
2022/12/01 00:00:52;;;;;;;48.73;23.77;;;;;;;;;;5004715;28;20244;-67
2022/12/01 00:03:18;;;;;;;53.47;24.53;;;;;;;;;;5010411;28;20290;-67
2022/12/01 00:05:43;;;;;;;51.80;23.60;;;;;;;;;;5010664;28;20577;-67
2022/12/01 00:08:08;;;;;;;56.13;25.40;;;;;;;;;;5009548;28;20224;-67
2022/12/01 00:10:34;;;;;;;48.80;23.47;;;;;;;;;;5002624;28;20632;-67
2022/12/01 00:13:01;;;;;;;52.03;24.37;;;;;;;;;;4991271;28;20677;-67
2022/12/01 00:15:27;;;;;;;49.75;23.63;;;;;;;;;;4992250;28;20216;-67
2022/12/01 00:17:53;;;;;;;50.50;23.42;;;;;;;;;;4980153;28;20229;-67
2022/12/01 00:20:18;;;;;;;48.77;23.23;;;;;;;;;;4971276;28;20221;-67
2022/12/01 00:22:44;;;;;;;52.70;24.77;;;;;;;;;;4970924;28;20620;-67
2022/12/01 00:25:09;;;;;;;54.73;24.13;;;;;;;;;;4971140;28;20214;-67
2022/12/01 00:27:34;;;;;;;57.38;26.83;;;;;;;;;;4971567;28;20228;-67
2022/12/01 00:30:00;;;;;;;55.67;25.47;;;;;;;;;;4970845;28;20217;-68
2022/12/01 00:32:25;;;;;;;59.13;26.10;;;;;;;;;;4982004;28;20216;-67
2022/12/01 00:34:50;;;;;;;62.97;27.70;;;;;;;;;;4977538;28;20213;-67
2022/12/01 00:37:15;;;;;;;51.50;25.40;;;;;;;;;;4972292;28;20210;-67
2022/12/01 00:39:41;;;;;;;58.53;26.37;;;;;;;;;;4983826;28;20209;-67
2022/12/01 00:42:06;;;;;;;59.03;27.73;;;;;;;;;;4974348;28;20210;-67
2022/12/01 00:44:31;;;;;;;64.70;27.13;;;;;;;;;;4975437;28;20224;-67
2022/12/01 00:46:56;;;;;;;65.60;29.17;;;;;;;;;;4975086;28;20225;-68
2022/12/01 00:49:22;;;;;;;64.20;27.45;;;;;;;;;;4974450;28;20210;-67
2022/12/01 00:51:47;;;;;;;62.63;28.40;;;;;;;;;;4975316;28;20677;-68
2022/12/01 00:54:12;;;;;;;64.23;28.60;;;;;;;;;;4975019;28;20214;-67
2022/12/01 00:56:37;;;;;;;63.78;27.35;;;;;;;;;;4974316;28;20218;-68
2022/12/01 00:59:03;;;;;;;60.03;27.63;;;;;;;;;;4977712;28;20570;-67
2022/12/01 01:01:28;;;;;;;55.27;26.07;;;;;;;;;;4975184;28;20230;-68
2022/12/01 01:03:53;;;;;;;55.17;26.83;;;;;;;;;;4974026;28;20210;-67
2022/12/01 01:06:18;;;;;;;61.35;28.00;;;;;;;;;;4974556;28;20343;-67
2022/12/01 01:08:44;;;;;;;60.37;27.33;;;;;;;;;;4974950;28;20464;-68
2022/12/01 01:11:09;;;;;;;60.85;28.20;;;;;;;;;;4973672;28;20668;-67
2022/12/01 01:13:34;;;;;;;55.38;26.10;;;;;;;;;;4974818;28;20212;-67
2022/12/01 01:16:01;;;;;;;54.70;26.90;;;;;;;;;;4973526;28;20218;-67
2022/12/01 01:18:27;;;;;;;54.43;26.47;;;;;;;;;;4983605;28;20301;-67
2022/12/01 01:20:54;;;;;;;58.47;27.40;;;;;;;;;;4994458;28;20296;-68
2022/12/01 01:23:19;;;;;;;63.33;29.17;;;;;;;;;;4993558;28;20273;-67
2022/12/01 01:25:44;;;;;;;54.27;26.53;;;;;;;;;;4993462;28;20299;-68
2022/12/01 01:28:10;;;;;;;55.80;26.93;;;;;;;;;;4993456;28;20231;-67
2022/12/01 01:30:37;;;;;;;54.57;27.40;;;;;;;;;;4994332;28;20221;-68
2022/12/01 01:33:03;;;;;;;55.77;27.47;;;;;;;;;;4992446;28;20583;-67
2022/12/01 01:35:28;;;;;;;63.10;29.10;;;;;;;;;;4993932;28;20213;-68
2022/12/01 01:37:54;;;;;;;55.90;27.80;;;;;;;;;;4993890;28;20304;-67
2022/12/01 01:40:19;;;;;;;59.00;28.77;;;;;;;;;;4993077;28;20264;-67
2022/12/01 01:42:44;;;;;;;56.63;27.40;;;;;;;;;;5004974;28;20220;-68
2022/12/01 01:45:16;;;;;;;68.97;31.70;;;;;;;;;;5012790;28;20216;-67
2022/12/01 01:47:41;;;;;;;60.77;28.03;;;;;;;;;;5011190;28;20228;-67
2022/12/01 01:50:08;;;;;;;61.80;29.33;;;;;;;;;;5012111;28;20223;-67
2022/12/01 01:52:34;;;;;;;63.70;29.00;;;;;;;;;;5011114;28;20751;-68
2022/12/01 01:55:00;;;;;;;59.73;28.30;;;;;;;;;;5012035;28;20212;-68
2022/12/01 01:57:26;;;;;;;62.43;28.17;;;;;;;;;;5001413;28;20288;-67
2022/12/01 01:59:53;;;;;;;58.47;27.87;;;;;;;;;;4995275;28;20248;-67
2022/12/01 02:02:19;;;;;;;62.27;27.77;;;;;;;;;;5008621;28;20240;-67
2022/12/01 02:04:44;;;;;;;55.77;27.67;;;;;;;;;;5007313;28;20212;-67
2022/12/01 02:07:10;;;;;;;64.23;27.23;;;;;;;;;;5002390;28;20212;-67
2022/12/01 02:09:35;;;;;;;56.90;26.73;;;;;;;;;;5003388;28;20216;-67
2022/12/01 02:12:05;;;;;;;61.63;28.57;;;;;;;;;;5012510;28;20227;-66
2022/12/01 02:14:33;;;;;;;65.03;28.80;;;;;;;;;;5011941;28;20212;-67
2022/12/01 02:17:00;;;;;;;67.03;29.27;;;;;;;;;;4993309;28;20229;-67
2022/12/01 02:19:29;;;;;;;70.67;31.13;;;;;;;;;;4991144;28;20209;-67
2022/12/01 02:22:03;;;;;;;64.53;28.88;;;;;;;;;;4992388;28;20593;-67
2022/12/01 02:24:40;;;;;;;67.13;28.00;;;;;;;;;;4980836;28;20209;-67
2022/12/01 02:27:08;;;;;;;65.00;28.67;;;;;;;;;;4973107;28;20297;-67
2022/12/01 02:29:40;;;;;;;62.00;28.55;;;;;;;;;;4971330;28;20592;-67
2022/12/01 02:32:18;;;;;;;59.33;27.23;;;;;;;;;;4971857;28;20713;-67
2022/12/01 02:35:04;;;;;;;62.47;27.90;;;;;;;;;;4972435;28;20396;-67
2022/12/01 02:37:29;;;;;;;62.77;28.50;;;;;;;;;;4973168;28;20683;-67
2022/12/01 02:40:19;;;;;;;63.37;28.13;;;;;;;;;;4973173;28;20218;-68
2022/12/01 02:43:01;;;;;;;58.47;27.07;;;;;;;;;;4989159;28;20213;-67
2022/12/01 02:45:32;;;;;;;57.60;26.90;;;;;;;;;;5000194;28;20542;-67
2022/12/01 02:47:58;;;;;;;55.17;25.83;;;;;;;;;;4992553;28;20221;-68
2022/12/01 02:50:24;;;;;;;56.10;26.33;;;;;;;;;;4989852;28;20213;-68
2022/12/01 02:52:49;;;;;;;59.83;27.57;;;;;;;;;;4992646;28;20290;-67
2022/12/01 02:55:14;;;;;;;61.23;27.43;;;;;;;;;;4992053;28;20213;-67
2022/12/01 02:57:39;;;;;;;58.50;26.67;;;;;;;;;;4978614;28;20256;-67
2022/12/01 03:00:05;;;;;;;59.33;27.40;;;;;;;;;;4993370;28;20216;-67
2022/12/01 03:02:42;;;;;;;62.77;28.97;;;;;;;;;;5011847;28;20259;-68
2022/12/01 03:05:17;;;;;;;65.53;28.63;;;;;;;;;;5001665;28;20207;-67
2022/12/01 03:07:48;;;;;;;61.00;28.07;;;;;;;;;;5011789;28;20228;-67
2022/12/01 03:10:20;;;;;;;68.30;29.57;;;;;;;;;;5010709;28;20220;-68
2022/12/01 03:12:45;;;;;;;64.40;28.80;;;;;;;;;;5011695;28;20683;-67
2022/12/01 03:15:11;;;;;;;67.60;30.17;;;;;;;;;;5009085;28;20224;-67
2022/12/01 03:17:38;;;;;;;66.60;29.90;;;;;;;;;;5011033;28;20215;-68
2022/12/01 03:20:07;;;;;;;64.50;29.53;;;;;;;;;;5001660;28;20208;-67
2022/12/01 03:22:35;;;;;;;64.67;28.87;;;;;;;;;;5002176;28;20219;-67
2022/12/01 03:25:00;;;;;;;68.07;29.23;;;;;;;;;;5010249;28;20236;-66
2022/12/01 03:27:26;;;;;;;69.80;30.17;;;;;;;;;;5011561;28;20756;-68
2022/12/01 03:29:52;;;;;;;71.47;30.77;;;;;;;;;;5011231;28;20220;-67
2022/12/01 03:32:19;;;;;;;69.43;30.60;;;;;;;;;;5000938;28;20749;-68
2022/12/01 03:34:49;;;;;;;65.20;28.03;;;;;;;;;;5002034;28;20274;-67
2022/12/01 03:37:17;;;;;;;67.07;29.93;;;;;;;;;;5010713;28;20679;-67
2022/12/01 03:39:42;;;;;;;69.63;30.03;;;;;;;;;;5001174;28;20212;-67
2022/12/01 03:42:09;;;;;;;64.57;29.87;;;;;;;;;;4994579;28;20296;-67
2022/12/01 03:44:36;;;;;;;65.60;29.97;;;;;;;;;;4987770;28;20615;-68
2022/12/01 03:47:03;;;;;;;66.93;30.10;;;;;;;;;;4980488;28;20295;-67
2022/12/01 03:49:28;;;;;;;71.80;30.20;;;;;;;;;;4985507;28;20715;-67
2022/12/01 03:52:03;;;;;;;67.93;29.93;;;;;;;;;;4981391;28;20213;-68
2022/12/01 03:54:35;;;;;;;67.77;29.40;;;;;;;;;;4962780;28;20205;-68
2022/12/01 03:57:02;;;;;;;69.97;30.03;;;;;;;;;;4974153;28;20214;-68
2022/12/01 03:59:27;;;;;;;62.20;28.77;;;;;;;;;;4992459;28;20300;-68
2022/12/01 04:01:52;;;;;;;76.23;29.70;;;;;;;;;;4994830;28;20233;-68
2022/12/01 04:04:18;;;;;;;64.70;28.87;;;;;;;;;;4999248;28;20222;-69
2022/12/01 04:06:45;;;;;;;63.57;28.80;;;;;;;;;;4982054;28;20232;-68
2022/12/01 04:09:10;;;;;;;66.67;28.60;;;;;;;;;;5000607;28;20221;-68
2022/12/01 04:14:21;;;;;;;61.33;27.23;;;;;;;;;;4992376;28;20230;-68
2022/12/01 04:16:46;;;;;;;63.53;27.83;;;;;;;;;;4977326;28;20269;-68
2022/12/01 04:19:11;;;;;;;57.77;26.70;;;;;;;;;;4980728;28;20221;-68
2022/12/01 04:21:37;;;;;;;59.23;28.10;;;;;;;;;;4980596;28;20595;-68
2022/12/01 04:24:02;;;;;;;62.60;27.47;;;;;;;;;;4981028;28;20320;-67
2022/12/01 04:26:29;;;;;;;64.73;28.00;;;;;;;;;;4981885;28;20212;-68
2022/12/01 04:28:54;;;;;;;67.40;28.80;;;;;;;;;;4980868;28;20229;-68
2022/12/01 04:31:19;;;;;;;61.27;28.23;;;;;;;;;;5000385;28;20481;-68
2022/12/01 04:33:45;;;;;;;63.63;27.77;;;;;;;;;;4996769;28;20204;-68
2022/12/01 04:36:10;;;;;;;60.90;27.43;;;;;;;;;;4992838;28;20213;-68
2022/12/01 04:38:36;;;;;;;60.10;27.93;;;;;;;;;;4992879;28;20461;-68
2022/12/01 04:41:09;;;;;;;59.80;28.30;;;;;;;;;;4997351;28;20535;-67
2022/12/01 04:43:34;;;;;;;56.80;26.53;;;;;;;;;;4998193;28;20224;-67
2022/12/01 04:45:59;;;;;;;59.50;27.77;;;;;;;;;;4983599;28;20221;-68
2022/12/01 04:48:25;;;;;;;60.57;28.03;;;;;;;;;;4981886;28;20655;-68
2022/12/01 04:50:50;;;;;;;59.80;27.30;;;;;;;;;;4983505;28;20224;-68
2022/12/01 04:53:15;;;;;;;59.00;28.65;;;;;;;;;;4982727;28;20216;-67
2022/12/01 04:55:40;;;;;;;59.87;27.20;;;;;;;;;;4980017;28;20673;-67
2022/12/01 04:58:06;;;;;;;56.90;27.13;;;;;;;;;;4975188;28;20224;-67
2022/12/01 05:00:32;;;;;;;62.90;27.83;;;;;;;;;;4975812;28;20609;-67
2022/12/01 05:02:57;;;;;;;56.43;27.27;;;;;;;;;;4996230;28;20217;-68
2022/12/01 05:05:23;;;;;;;58.83;27.20;;;;;;;;;;5002040;28;20296;-67
2022/12/01 05:07:48;;;;;;;60.53;27.47;;;;;;;;;;4981284;28;20233;-67
2022/12/01 05:10:14;;;;;;;56.53;28.47;;;;;;;;;;4982013;28;20676;-68
2022/12/01 05:12:40;;;;;;;62.63;29.10;;;;;;;;;;5002221;28;20224;-67
2022/12/01 05:15:06;;;;;;;55.27;27.60;;;;;;;;;;4997823;28;20583;-68
2022/12/01 05:17:31;;;;;;;57.40;27.43;;;;;;;;;;4982024;28;20224;-67
2022/12/01 05:22:40;;;;;;;49.00;25.13;;;;;;;;;;4956017;28;20264;-68
2022/12/01 05:25:05;;;;;;;50.63;25.87;;;;;;;;;;4959202;28;20308;-67
2022/12/01 05:27:31;;;;;;;51.83;25.03;;;;;;;;;;4986036;28;20867;-68
2022/12/01 05:29:56;;;;;;;49.30;25.10;;;;;;;;;;4986681;28;20227;-67
2022/12/01 05:32:21;;;;;;;46.40;24.83;;;;;;;;;;4976078;28;20218;-67
2022/12/01 05:34:46;;;;;;;48.80;25.23;;;;;;;;;;4967141;28;20566;-67
2022/12/01 05:37:12;;;;;;;49.23;24.57;;;;;;;;;;4966520;28;20312;-67
2022/12/01 05:39:39;;;;;;;51.90;24.83;;;;;;;;;;4984983;28;20221;-67
2022/12/01 05:42:04;;;;;;;46.63;24.43;;;;;;;;;;4973075;28;20246;-67
2022/12/01 05:44:29;;;;;;;52.00;25.85;;;;;;;;;;4958250;28;20434;-67
2022/12/01 05:46:54;;;;;;;49.57;26.27;;;;;;;;;;4958497;28;20217;-68
2022/12/01 05:49:20;;;;;;;44.97;24.87;;;;;;;;;;4965186;28;20225;-67
2022/12/01 05:51:45;;;;;;;54.93;26.90;;;;;;;;;;4985396;28;20213;-68
2022/12/01 05:54:10;;;;;;;50.27;26.03;;;;;;;;;;4972451;28;20217;-67
2022/12/01 05:56:35;;;;;;;52.10;26.93;;;;;;;;;;4967069;28;20245;-67
2022/12/01 05:59:01;;;;;;;50.90;24.93;;;;;;;;;;4966163;28;20670;-67
2022/12/01 06:01:26;;;;;;;48.87;25.30;;;;;;;;;;4966500;28;20714;-68
2022/12/01 06:03:52;;;;;;;51.10;26.97;;;;;;;;;;4962903;28;20221;-67
2022/12/01 06:06:17;;;;;;;53.77;26.17;;;;;;;;;;4976613;28;20213;-67
2022/12/01 06:08:42;;;;;;;51.17;26.03;;;;;;;;;;4977253;28;20261;-69
2022/12/01 06:11:07;;;;;;;54.93;27.47;;;;;;;;;;4981025;28;20224;-67
2022/12/01 06:13:33;;;;;;;52.80;27.00;;;;;;;;;;4984390;28;20224;-67
2022/12/01 06:15:58;;;;;;;52.87;27.10;;;;;;;;;;4976344;28;20221;-68
2022/12/01 06:18:25;;;;;;;55.50;27.10;;;;;;;;;;4984421;28;20220;-67
2022/12/01 06:20:50;;;;;;;56.07;27.47;;;;;;;;;;4984919;28;20217;-67
2022/12/01 06:23:15;;;;;;;60.07;28.83;;;;;;;;;;4984811;28;20221;-67
2022/12/01 06:25:40;;;;;;;58.43;28.67;;;;;;;;;;4983791;28;20300;-67
2022/12/01 06:28:06;;;;;;;54.73;27.53;;;;;;;;;;4976686;28;20240;-67
2022/12/01 06:30:31;;;;;;;55.77;27.23;;;;;;;;;;4977541;28;20300;-67
2022/12/01 06:32:57;;;;;;;57.77;29.30;;;;;;;;;;4978818;28;20217;-68
2022/12/01 06:35:22;;;;;;;60.10;29.13;;;;;;;;;;4983366;28;20923;-67
2022/12/01 06:37:47;;;;;;;59.27;29.73;;;;;;;;;;4984946;28;20351;-67
2022/12/01 06:40:13;;;;;;;60.47;29.60;;;;;;;;;;4984556;28;20224;-67
2022/12/01 06:42:38;;;;;;;60.47;28.97;;;;;;;;;;4986667;28;20217;-70
2022/12/01 06:45:03;;;;;;;61.27;29.33;;;;;;;;;;4993918;28;20715;-65
2022/12/01 06:47:29;;;;;;;63.95;32.80;;;;;;;;;;4994154;28;20425;-67
2022/12/01 06:49:54;;;;;;;64.03;30.67;;;;;;;;;;4996196;28;20238;-66
2022/12/01 06:52:20;;;;;;;61.50;30.60;;;;;;;;;;4999387;28;20248;-64
2022/12/01 06:54:45;;;;;;;62.23;30.83;;;;;;;;;;5007912;28;20220;-68
2022/12/01 06:57:10;;;;;;;60.07;29.30;;;;;;;;;;5003892;28;20314;-68
2022/12/01 06:59:36;;;;;;;65.63;32.43;;;;;;;;;;5003389;28;20433;-69
2022/12/01 07:02:01;;;;;;;59.67;29.40;;;;;;;;;;5001473;28;20254;-66
2022/12/01 07:04:27;;;;;;;66.03;30.33;;;;;;;;;;5005897;28;20212;-66
2022/12/01 07:06:53;;;;;;;60.67;28.23;;;;;;;;;;4997326;28;20210;-66
2022/12/01 07:09:18;;;;;;;66.27;31.17;;;;;;;;;;4998839;28;20213;-65
2022/12/01 07:11:43;;;;;;;63.70;29.63;;;;;;;;;;5004048;28;20204;-66
2022/12/01 07:14:15;;;;;;;62.87;30.70;;;;;;;;;;5003154;28;20292;-65
2022/12/01 07:16:40;;;;;;;59.83;28.17;;;;;;;;;;5000840;28;20303;-65
2022/12/01 07:19:05;;;;;;;62.88;29.17;;;;;;;;;;5002739;28;20300;-65
2022/12/01 07:21:30;;;;;;;68.60;31.33;;;;;;;;;;5003037;28;20698;-66
2022/12/01 07:23:56;;;;;;;69.37;30.90;;;;;;;;;;5003678;28;20221;-66
2022/12/01 07:26:21;;;;;;;67.50;30.40;;;;;;;;;;5003612;28;20220;-65
2022/12/01 07:28:46;;;;;;;70.00;31.20;;;;;;;;;;5001819;28;20217;-66
2022/12/01 07:31:13;;;;;;;66.57;30.47;;;;;;;;;;5001714;28;20627;-66
2022/12/01 07:33:38;;;;;;;64.67;29.97;;;;;;;;;;5004189;28;20373;-65
2022/12/01 07:36:05;;;;;;;67.97;30.40;;;;;;;;;;5002002;28;20284;-65
2022/12/01 07:38:30;;;;;;;72.80;31.33;;;;;;;;;;5002278;28;20291;-65
2022/12/01 07:41:05;;;;;;;73.87;30.93;;;;;;;;;;5003844;28;20293;-66
2022/12/01 07:43:31;;;;;;;67.33;30.17;;;;;;;;;;5002345;28;20212;-64
2022/12/01 07:46:01;;;;;;;72.73;35.73;;;;;;;;;;4999322;28;20443;-65
2022/12/01 07:48:28;;;;;;;74.27;32.53;;;;;;;;;;5001284;28;20710;-65
2022/12/01 07:50:54;;;;;;;65.63;31.50;;;;;;;;;;5007098;28;20204;-65
2022/12/01 07:53:19;;;;;;;69.13;31.40;;;;;;;;;;5008265;28;20212;-64
2022/12/01 07:55:50;;;;;;;66.17;30.87;;;;;;;;;;5009870;28;20317;-66
2022/12/01 07:58:16;;;;;;;73.30;32.00;;;;;;;;;;5001014;28;20209;-65
2022/12/01 08:00:41;;;;;;;72.13;31.67;;;;;;;;;;5010770;28;20598;-65
2022/12/01 08:03:06;;;;;;;73.33;31.13;;;;;;;;;;5020030;28;20218;-66
2022/12/01 08:05:32;;;;;;;75.03;33.93;;;;;;;;;;5031944;28;20222;-67
2022/12/01 08:07:57;;;;;;;77.90;32.13;;;;;;;;;;5032216;28;20691;-67
2022/12/01 08:10:22;;;;;;;74.90;33.00;;;;;;;;;;5014350;28;20208;-66
2022/12/01 08:12:47;;;;;;;74.47;32.10;;;;;;;;;;5012385;28;20220;-66
2022/12/01 08:15:13;;;;;;;75.77;31.43;;;;;;;;;;5027395;28;20208;-66
2022/12/01 08:17:38;;;;;;;70.57;30.33;;;;;;;;;;5012325;28;20641;-66
2022/12/01 08:20:04;;;;;;;77.70;32.87;;;;;;;;;;5011494;28;20232;-64
2022/12/01 08:22:29;;;;;;;71.03;31.67;;;;;;;;;;5012621;28;20212;-65
2022/12/01 08:24:55;;;;;;;75.03;33.23;;;;;;;;;;5012816;28;20231;-64
2022/12/01 08:27:20;;;;;;;68.17;31.10;;;;;;;;;;5011101;28;20318;-64
2022/12/01 08:29:45;;;;;;;70.00;31.30;;;;;;;;;;5012532;28;20216;-64
2022/12/01 08:32:10;;;;;;;72.37;31.17;;;;;;;;;;5011859;28;20223;-64
2022/12/01 08:34:37;;;;;;;75.47;33.03;;;;;;;;;;5011882;28;20251;-66
2022/12/01 08:37:02;;;;;;;76.00;33.80;;;;;;;;;;5012098;28;20283;-63
2022/12/01 08:39:28;;;;;;;80.73;36.63;;;;;;;;;;5012159;28;20427;-66
2022/12/01 08:41:53;;;;;;;74.10;33.10;;;;;;;;;;5011770;28;20201;-66
2022/12/01 08:44:18;;;;;;;84.83;35.70;;;;;;;;;;5011724;28;20224;-65
2022/12/01 08:46:43;;;;;;;91.82;42.15;;;;;;;;;;5011597;28;20430;-63
2022/12/01 08:49:09;;;;;;;81.18;36.47;;;;;;;;;;5011387;28;20303;-67
2022/12/01 08:51:35;;;;;;;120.57;52.47;;;;;;;;;;5027552;28;20208;-66
2022/12/01 08:54:00;;;;;;;107.13;50.47;;;;;;;;;;5009599;28;20248;-66
2022/12/01 08:56:27;;;;;;;73.27;33.67;;;;;;;;;;4991619;28;20205;-67
2022/12/01 08:58:52;;;;;;;98.43;48.97;;;;;;;;;;4994609;28;20213;-66
2022/12/01 09:01:17;;;;;;;83.37;35.47;;;;;;;;;;5003643;28;20228;-67
2022/12/01 09:03:43;;;;;;;82.13;35.50;;;;;;;;;;5006251;28;20220;-66
2022/12/01 09:06:10;;;;;;;76.37;35.27;;;;;;;;;;5004366;28;20236;-67
2022/12/01 09:08:35;;;;;;;78.67;35.10;;;;;;;;;;5003100;28;20229;-67
2022/12/01 09:11:02;;;;;;;93.63;47.97;;;;;;;;;;4996122;28;20573;-64
2022/12/01 09:13:28;;;;;;;72.17;33.90;;;;;;;;;;4996010;28;20216;-66
2022/12/01 09:15:57;;;;;;;70.53;31.97;;;;;;;;;;4995259;28;20225;-66
2022/12/01 09:18:22;;;;;;;75.00;30.97;;;;;;;;;;4995980;28;20216;-67
2022/12/01 09:20:48;;;;;;;71.10;31.00;;;;;;;;;;4996463;28;20221;-67
2022/12/01 09:23:13;;;;;;;66.83;31.63;;;;;;;;;;4995056;28;20240;-65
2022/12/01 09:25:38;;;;;;;75.63;31.70;;;;;;;;;;4996365;28;20232;-67
2022/12/01 09:28:03;;;;;;;68.10;30.90;;;;;;;;;;4995592;28;20249;-65
2022/12/01 09:30:28;;;;;;;65.57;29.80;;;;;;;;;;4994828;28;20644;-66
2022/12/01 09:32:54;;;;;;;67.87;29.63;;;;;;;;;;4996088;28;20304;-66
2022/12/01 09:35:19;;;;;;;73.63;31.90;;;;;;;;;;4995709;28;20677;-68
2022/12/01 09:37:44;;;;;;;67.03;31.57;;;;;;;;;;4995347;28;20231;-66
2022/12/01 09:40:12;;;;;;;64.23;30.87;;;;;;;;;;4995564;28;20210;-66
2022/12/01 09:42:37;;;;;;;74.10;31.87;;;;;;;;;;4995928;28;20213;-67
2022/12/01 09:45:03;;;;;;;69.03;31.40;;;;;;;;;;4994130;28;20251;-66
2022/12/01 09:47:30;;;;;;;67.80;31.90;;;;;;;;;;4995804;28;20244;-66
2022/12/01 09:49:59;;;;;;;67.70;31.13;;;;;;;;;;4994597;28;20213;-66
2022/12/01 09:52:25;;;;;;;71.97;31.73;;;;;;;;;;4995402;28;20216;-66
2022/12/01 09:54:51;;;;;;;68.93;31.33;;;;;;;;;;5013692;28;20216;-66
2022/12/01 09:57:31;;;;;;;69.70;32.70;;;;;;;;;;5006037;28;20216;-66
2022/12/01 09:59:56;;;;;;;74.77;32.93;;;;;;;;;;5002109;28;20234;-65
2022/12/01 10:02:26;;;;;;;68.13;30.53;;;;;;;;;;5000736;28;20264;-66
2022/12/01 10:04:52;;;;;;;72.30;31.67;;;;;;;;;;5006484;28;20219;-65
2022/12/01 10:07:20;;;;;;;65.63;31.40;;;;;;;;;;5010282;28;20228;-66
2022/12/01 10:09:48;;;;;;;67.87;31.07;;;;;;;;;;5004355;28;20235;-66
2022/12/01 10:12:14;;;;;;;66.93;30.13;;;;;;;;;;5006414;28;20292;-65
2022/12/01 10:14:40;;;;;;;74.60;31.35;;;;;;;;;;4990027;28;20263;-66
2022/12/01 10:17:09;;;;;;;62.13;29.77;;;;;;;;;;4986711;28;20217;-66
2022/12/01 10:19:37;;;;;;;59.57;28.97;;;;;;;;;;4988255;28;20217;-66
2022/12/01 10:22:06;;;;;;;60.73;28.63;;;;;;;;;;4981429;28;20209;-65
2022/12/01 10:24:35;;;;;;;59.70;28.87;;;;;;;;;;4986348;28;20213;-66
2022/12/01 10:27:11;;;;;;;61.33;30.17;;;;;;;;;;4988813;28;20212;-64
2022/12/01 10:29:40;;;;;;;64.07;30.15;;;;;;;;;;4994206;28;20249;-66
2022/12/01 10:32:15;;;;;;;62.00;29.40;;;;;;;;;;4994314;28;20807;-66
2022/12/01 10:34:40;;;;;;;59.90;28.57;;;;;;;;;;4982925;28;20225;-65
2022/12/01 10:37:08;;;;;;;60.53;30.03;;;;;;;;;;4994129;28;20217;-66
2022/12/01 10:39:34;;;;;;;59.63;30.20;;;;;;;;;;4993316;28;20296;-66
2022/12/01 10:42:02;;;;;;;59.70;29.20;;;;;;;;;;4992374;28;20304;-66
2022/12/01 10:44:28;;;;;;;65.17;31.37;;;;;;;;;;5007482;28;20268;-64
2022/12/01 10:46:54;;;;;;;59.47;29.03;;;;;;;;;;5007022;28;20208;-66
2022/12/01 10:49:19;;;;;;;60.57;30.27;;;;;;;;;;5009111;28;20243;-67
2022/12/01 10:51:47;;;;;;;61.77;31.17;;;;;;;;;;5012066;28;20216;-67
2022/12/01 10:54:12;;;;;;;61.47;30.90;;;;;;;;;;4997010;28;20228;-67
2022/12/01 10:56:38;;;;;;;56.47;28.40;;;;;;;;;;4995680;28;20212;-66
2022/12/01 10:59:04;;;;;;;55.00;28.47;;;;;;;;;;4989453;28;20257;-67
2022/12/01 11:01:34;;;;;;;52.30;27.37;;;;;;;;;;4984571;28;20244;-66
2022/12/01 11:04:02;;;;;;;55.20;27.37;;;;;;;;;;4987742;28;20240;-66
2022/12/01 11:06:28;;;;;;;49.63;26.30;;;;;;;;;;5010431;28;20216;-65
2022/12/01 11:08:59;;;;;;;49.40;26.55;;;;;;;;;;5010198;28;20274;-66
2022/12/01 11:11:25;;;;;;;48.23;25.50;;;;;;;;;;5003534;28;20209;-65
2022/12/01 11:13:50;;;;;;;51.13;26.03;;;;;;;;;;5008390;28;20220;-66
2022/12/01 11:16:33;;;;;;;52.57;28.00;;;;;;;;;;5007310;28;20209;-66
2022/12/01 11:19:06;;;;;;;47.27;25.30;;;;;;;;;;5007279;28;20220;-65
2022/12/01 11:21:31;;;;;;;46.80;26.60;;;;;;;;;;5008984;28;20216;-65
2022/12/01 11:23:57;;;;;;;48.13;25.75;;;;;;;;;;5009526;28;20216;-65
2022/12/01 11:26:24;;;;;;;46.00;26.27;;;;;;;;;;5004590;28;20686;-65
2022/12/01 11:28:51;;;;;;;43.78;24.23;;;;;;;;;;5003320;28;20735;-64
2022/12/01 11:31:16;;;;;;;45.78;24.52;;;;;;;;;;4993980;28;20214;-64
2022/12/01 11:33:43;;;;;;;44.58;24.23;;;;;;;;;;4993802;28;20220;-66
2022/12/01 11:36:08;;;;;;;48.67;25.67;;;;;;;;;;4999882;28;20213;-65
2022/12/01 11:38:34;;;;;;;48.47;25.38;;;;;;;;;;4997107;28;20586;-65
2022/12/01 11:40:59;;;;;;;45.97;24.05;;;;;;;;;;4993706;28;20225;-65
2022/12/01 11:43:24;;;;;;;47.90;25.25;;;;;;;;;;4990510;28;20221;-65
2022/12/01 11:45:50;;;;;;;41.95;23.98;;;;;;;;;;4995588;28;20584;-65
2022/12/01 11:48:19;;;;;;;44.10;23.07;;;;;;;;;;5000998;28;20266;-65
2022/12/01 11:50:59;;;;;;;46.78;26.40;;;;;;;;;;4995682;28;20209;-66
2022/12/01 11:53:26;;;;;;;44.55;24.05;;;;;;;;;;4993921;28;20702;-65
2022/12/01 11:55:51;;;;;;;45.05;25.75;;;;;;;;;;4991852;28;20220;-64
2022/12/01 11:58:17;;;;;;;46.72;26.02;;;;;;;;;;5006850;28;20216;-64
2022/12/01 12:00:44;;;;;;;41.67;23.90;;;;;;;;;;4987731;28;20248;-64
2022/12/01 12:03:16;;;;;;;45.50;25.40;;;;;;;;;;4986063;28;20227;-65
2022/12/01 12:05:57;;;;;;;41.00;22.38;;;;;;;;;;4994357;28;20225;-64
2022/12/01 12:08:26;;;;;;;42.30;23.43;;;;;;;;;;4997965;28;20216;-64
2022/12/01 12:10:51;;;;;;;43.80;24.80;;;;;;;;;;4996132;28;20295;-64
2022/12/01 12:13:25;;;;;;;42.23;25.07;;;;;;;;;;4992148;28;20618;-64
2022/12/01 12:15:57;;;;;;;45.67;24.33;;;;;;;;;;5000780;28;20263;-66
2022/12/01 12:18:29;;;;;;;42.30;24.48;;;;;;;;;;4999432;28;20659;-66
2022/12/01 12:21:07;;;;;;;41.73;23.87;;;;;;;;;;4993133;28;20224;-66
2022/12/01 12:23:43;;;;;;;44.50;24.17;;;;;;;;;;4990765;28;20216;-65
2022/12/01 12:26:11;;;;;;;45.92;24.88;;;;;;;;;;5001659;28;20573;-65
2022/12/01 12:28:45;;;;;;;46.73;26.13;;;;;;;;;;5010902;28;20569;-65
2022/12/01 12:31:10;;;;;;;45.55;25.15;;;;;;;;;;4997248;28;20208;-65
2022/12/01 12:33:42;;;;;;;43.20;24.92;;;;;;;;;;4994649;28;20204;-65
2022/12/01 12:36:16;;;;;;;42.97;23.58;;;;;;;;;;5000503;28;20213;-65
2022/12/01 12:38:48;;;;;;;41.55;23.35;;;;;;;;;;4999175;28;20209;-65
2022/12/01 12:41:40;;;;;;;48.22;25.25;;;;;;;;;;4991941;28;20320;-65
2022/12/01 12:44:12;;;;;;;43.40;23.13;;;;;;;;;;4992224;28;20268;-65
2022/12/01 12:46:56;;;;;;;47.40;25.92;;;;;;;;;;4999271;28;20665;-65
2022/12/01 12:49:26;;;;;;;46.17;24.95;;;;;;;;;;5011472;28;20590;-65
2022/12/01 12:51:53;;;;;;;47.35;25.58;;;;;;;;;;5011125;28;20564;-65
2022/12/01 12:54:22;;;;;;;45.30;25.17;;;;;;;;;;5009929;28;20726;-65
2022/12/01 12:56:50;;;;;;;48.85;25.98;;;;;;;;;;5003872;28;20669;-65
2022/12/01 12:59:18;;;;;;;47.95;26.98;;;;;;;;;;4987316;28;20213;-65
2022/12/01 13:01:47;;;;;;;50.13;27.23;;;;;;;;;;4990752;28;20283;-65
2022/12/01 13:04:15;;;;;;;46.15;25.63;;;;;;;;;;4977783;28;20583;-64
2022/12/01 13:06:42;;;;;;;49.20;26.23;;;;;;;;;;4996191;28;20830;-64
2022/12/01 13:09:07;;;;;;;43.72;24.58;;;;;;;;;;4991347;28;20243;-65
2022/12/01 13:11:35;;;;;;;47.28;24.98;;;;;;;;;;4988380;28;20568;-64
2022/12/01 13:14:05;;;;;;;45.65;25.67;;;;;;;;;;4992167;28;20681;-64
2022/12/01 13:16:34;;;;;;;45.75;24.45;;;;;;;;;;4994617;28;20327;-64
2022/12/01 13:19:10;;;;;;;48.20;25.55;;;;;;;;;;5011819;28;20773;-66
2022/12/01 13:21:36;;;;;;;44.53;24.30;;;;;;;;;;5003186;28;20232;-65
2022/12/01 13:24:01;;;;;;;45.42;24.85;;;;;;;;;;5010740;28;20270;-65
2022/12/01 13:26:27;;;;;;;47.13;24.42;;;;;;;;;;4995656;28;20221;-65
2022/12/01 13:28:53;;;;;;;47.08;25.40;;;;;;;;;;4990191;28;20569;-66
2022/12/01 13:31:18;;;;;;;43.35;24.00;;;;;;;;;;4990832;28;20252;-65
2022/12/01 13:33:47;;;;;;;42.75;24.48;;;;;;;;;;4990732;28;20328;-65
2022/12/01 13:36:12;;;;;;;46.20;24.75;;;;;;;;;;4995963;28;20303;-65
2022/12/01 13:38:37;;;;;;;42.03;23.77;;;;;;;;;;5001714;28;20299;-65
2022/12/01 13:41:11;;;;;;;45.57;24.80;;;;;;;;;;4999039;28;20205;-66
2022/12/01 13:43:37;;;;;;;44.23;24.13;;;;;;;;;;4982686;28;20220;-66
2022/12/01 13:46:02;;;;;;;45.28;24.90;;;;;;;;;;4994029;28;20217;-65
2022/12/01 13:48:27;;;;;;;50.17;26.37;;;;;;;;;;4995467;28;20220;-65
2022/12/01 13:50:57;;;;;;;47.33;25.67;;;;;;;;;;4994026;28;20251;-66
2022/12/01 13:53:24;;;;;;;46.40;24.47;;;;;;;;;;4995721;28;20644;-65
2022/12/01 13:55:56;;;;;;;48.03;25.10;;;;;;;;;;4994364;28;20213;-66
2022/12/01 13:58:23;;;;;;;49.30;24.93;;;;;;;;;;5001930;28;20220;-66
2022/12/01 14:00:49;;;;;;;50.97;26.27;;;;;;;;;;5013610;28;20241;-66
2022/12/01 14:03:14;;;;;;;52.20;26.97;;;;;;;;;;5005832;28;20215;-65
2022/12/01 14:05:41;;;;;;;49.92;26.65;;;;;;;;;;5014085;28;20291;-66
2022/12/01 14:08:13;;;;;;;51.30;26.20;;;;;;;;;;5014644;28;20257;-65
2022/12/01 14:10:38;;;;;;;45.40;26.07;;;;;;;;;;5013789;28;20212;-65
2022/12/01 14:13:03;;;;;;;48.67;25.67;;;;;;;;;;5013792;28;20239;-65
2022/12/01 14:15:34;;;;;;;48.90;26.00;;;;;;;;;;5007421;28;20304;-65
2022/12/01 14:18:01;;;;;;;49.42;26.13;;;;;;;;;;4986699;28;20244;-66
2022/12/01 14:20:26;;;;;;;48.30;25.47;;;;;;;;;;4990040;28;20604;-65